sensor_id;sensor_type;location;lat;lon;timestamp;pressure;altitude;pressure_sealevel;temperature;humidity
21960;BME280;11144;43.030;25.108;2022-08-01T00:00:18;98874.38;;;22.16;100.00
21960;BME280;11144;43.030;25.108;2022-08-01T00:01:51;98873.81;;;22.22;100.00
21960;BME280;11144;43.030;25.108;2022-08-01T00:03:25;98883.88;;;22.20;100.00
21960;BME280;11144;43.030;25.108;2022-08-01T00:04:59;98867.69;;;22.10;100.00
21960;BME280;11144;43.030;25.108;2022-08-01T00:06:33;98881.88;;;22.12;100.00
21960;BME280;11144;43.030;25.108;2022-08-01T00:08:06;98875.31;;;22.05;100.00
21960;BME280;11144;43.030;25.108;2022-08-01T00:09:40;98864.78;;;21.93;100.00
21960;BME280;11144;43.030;25.108;2022-08-01T00:11:13;98868.34;;;21.93;100.00
21960;BME280;11144;43.030;25.108;2022-08-01T00:12:47;98874.88;;;21.91;100.00
21960;BME280;11144;43.030;25.108;2022-08-01T00:14:20;98870.47;;;21.90;100.00
21960;BME280;11144;43.030;25.108;2022-08-01T00:16:03;98865.63;;;21.84;100.00
21960;BME280;11144;43.030;25.108;2022-08-01T00:17:37;98861.63;;;21.78;100.00
21960;BME280;11144;43.030;25.108;2022-08-01T00:19:10;98865.06;;;21.80;100.00
21960;BME280;11144;43.030;25.108;2022-08-01T00:20:43;98871.53;;;21.78;100.00
21960;BME280;11144;43.030;25.108;2022-08-01T00:22:17;98866.47;;;21.75;100.00
21960;BME280;11144;43.030;25.108;2022-08-01T00:23:51;98866.72;;;21.72;100.00
21960;BME280;11144;43.030;25.108;2022-08-01T00:25:24;98859.88;;;21.68;100.00
21960;BME280;11144;43.030;25.108;2022-08-01T00:27:05;98867.75;;;21.60;100.00
21960;BME280;11144;43.030;25.108;2022-08-01T00:28:40;98861.94;;;21.55;100.00
21960;BME280;11144;43.030;25.108;2022-08-01T00:30:13;98872.00;;;21.53;100.00
21960;BME280;11144;43.030;25.108;2022-08-01T00:31:47;98866.13;;;21.48;100.00
21960;BME280;11144;43.030;25.108;2022-08-01T00:33:20;98871.09;;;21.43;100.00
21960;BME280;11144;43.030;25.108;2022-08-01T00:34:52;98864.25;;;21.39;100.00
21960;BME280;11144;43.030;25.108;2022-08-01T00:36:26;98872.72;;;21.34;100.00
21960;BME280;11144;43.030;25.108;2022-08-01T00:37:59;98867.88;;;21.28;100.00
21960;BME280;11144;43.030;25.108;2022-08-01T00:39:32;98863.88;;;21.23;100.00
21960;BME280;11144;43.030;25.108;2022-08-01T00:41:06;98864.16;;;21.20;100.00
21960;BME280;11144;43.030;25.108;2022-08-01T00:42:40;98864.69;;;21.14;100.00
21960;BME280;11144;43.030;25.108;2022-08-01T00:44:16;98868.63;;;21.10;100.00
21960;BME280;11144;43.030;25.108;2022-08-01T00:45:49;98860.09;;;21.05;100.00
21960;BME280;11144;43.030;25.108;2022-08-01T00:47:22;98863.03;;;21.02;100.00
21960;BME280;11144;43.030;25.108;2022-08-01T00:48:55;98861.72;;;20.96;100.00
21960;BME280;11144;43.030;25.108;2022-08-01T00:50:29;98866.25;;;20.96;100.00
21960;BME280;11144;43.030;25.108;2022-08-01T00:52:05;98863.06;;;20.91;100.00
21960;BME280;11144;43.030;25.108;2022-08-01T00:53:39;98850.00;;;20.86;100.00
21960;BME280;11144;43.030;25.108;2022-08-01T00:55:23;98856.78;;;20.81;100.00
21960;BME280;11144;43.030;25.108;2022-08-01T00:56:57;98854.72;;;20.73;100.00
21960;BME280;11144;43.030;25.108;2022-08-01T00:58:31;98850.00;;;20.66;100.00
21960;BME280;11144;43.030;25.108;2022-08-01T01:00:09;98851.50;;;20.59;100.00
21960;BME280;11144;43.030;25.108;2022-08-01T01:01:43;98856.28;;;20.55;100.00
21960;BME280;11144;43.030;25.108;2022-08-01T01:03:17;98860.94;;;20.53;100.00
21960;BME280;11144;43.030;25.108;2022-08-01T01:04:50;98858.91;;;20.46;100.00
21960;BME280;11144;43.030;25.108;2022-08-01T01:06:34;98860.63;;;20.36;100.00
21960;BME280;11144;43.030;25.108;2022-08-01T01:08:16;98849.91;;;20.25;100.00
21960;BME280;11144;43.030;25.108;2022-08-01T01:09:56;98847.97;;;20.16;100.00
21960;BME280;11144;43.030;25.108;2022-08-01T01:11:40;98844.81;;;20.11;100.00
21960;BME280;11144;43.030;25.108;2022-08-01T01:13:20;98846.28;;;20.15;100.00
21960;BME280;11144;43.030;25.108;2022-08-01T01:14:58;98839.91;;;20.16;100.00
21960;BME280;11144;43.030;25.108;2022-08-01T01:16:37;98847.72;;;20.19;100.00
21960;BME280;11144;43.030;25.108;2022-08-01T01:18:16;98845.78;;;20.21;100.00
21960;BME280;11144;43.030;25.108;2022-08-01T01:19:54;98843.81;;;20.23;100.00
21960;BME280;11144;43.030;25.108;2022-08-01T01:23:47;98847.47;;;20.22;100.00
21960;BME280;11144;43.030;25.108;2022-08-01T01:25:39;98850.03;;;20.23;100.00
21960;BME280;11144;43.030;25.108;2022-08-01T01:27:21;98847.00;;;20.28;100.00
21960;BME280;11144;43.030;25.108;2022-08-01T01:29:04;98856.88;;;20.27;100.00
21960;BME280;11144;43.030;25.108;2022-08-01T01:30:38;98850.91;;;20.24;100.00
21960;BME280;11144;43.030;25.108;2022-08-01T01:32:18;98844.06;;;20.20;100.00
21960;BME280;11144;43.030;25.108;2022-08-01T01:34:02;98837.22;;;20.16;100.00
21960;BME280;11144;43.030;25.108;2022-08-01T01:35:40;98843.59;;;20.15;100.00
21960;BME280;11144;43.030;25.108;2022-08-01T01:37:18;98838.47;;;20.12;100.00
21960;BME280;11144;43.030;25.108;2022-08-01T01:38:54;98840.03;;;20.14;100.00
21960;BME280;11144;43.030;25.108;2022-08-01T01:40:29;98839.78;;;20.17;100.00
21960;BME280;11144;43.030;25.108;2022-08-01T01:42:04;98828.94;;;20.19;100.00
21960;BME280;11144;43.030;25.108;2022-08-01T01:43:39;98835.28;;;20.18;100.00
21960;BME280;11144;43.030;25.108;2022-08-01T01:45:14;98828.81;;;20.20;100.00
21960;BME280;11144;43.030;25.108;2022-08-01T01:46:49;98827.22;;;20.18;100.00
21960;BME280;11144;43.030;25.108;2022-08-01T01:48:25;98821.13;;;20.16;100.00
21960;BME280;11144;43.030;25.108;2022-08-01T01:50:00;98826.38;;;20.17;100.00
21960;BME280;11144;43.030;25.108;2022-08-01T01:51:34;98826.38;;;20.17;100.00
21960;BME280;11144;43.030;25.108;2022-08-01T01:53:08;98821.41;;;20.13;100.00
21960;BME280;11144;43.030;25.108;2022-08-01T01:54:49;98810.38;;;20.04;100.00
21960;BME280;11144;43.030;25.108;2022-08-01T01:56:24;98813.34;;;20.02;100.00
21960;BME280;11144;43.030;25.108;2022-08-01T01:57:59;98808.22;;;19.98;100.00
21960;BME280;11144;43.030;25.108;2022-08-01T01:59:35;98805.78;;;19.95;100.00
21960;BME280;11144;43.030;25.108;2022-08-01T02:01:11;98800.41;;;19.95;100.00
21960;BME280;11144;43.030;25.108;2022-08-01T02:02:45;98800.88;;;20.00;100.00
21960;BME280;11144;43.030;25.108;2022-08-01T02:04:20;98799.75;;;20.03;100.00
21960;BME280;11144;43.030;25.108;2022-08-01T02:05:56;98796.97;;;20.04;100.00
21960;BME280;11144;43.030;25.108;2022-08-01T02:07:30;98796.97;;;20.04;100.00
21960;BME280;11144;43.030;25.108;2022-08-01T02:09:07;98800.38;;;20.07;100.00
21960;BME280;11144;43.030;25.108;2022-08-01T02:10:44;98798.06;;;20.02;100.00
21960;BME280;11144;43.030;25.108;2022-08-01T02:12:41;98803.44;;;20.02;100.00
21960;BME280;11144;43.030;25.108;2022-08-01T02:14:18;98802.31;;;20.04;100.00
21960;BME280;11144;43.030;25.108;2022-08-01T02:15:53;98801.25;;;20.07;100.00
21960;BME280;11144;43.030;25.108;2022-08-01T02:17:31;98801.63;;;20.14;100.00
21960;BME280;11144;43.030;25.108;2022-08-01T02:19:05;98807.25;;;20.11;100.00
21960;BME280;11144;43.030;25.108;2022-08-01T02:20:39;98801.09;;;20.08;100.00
21960;BME280;11144;43.030;25.108;2022-08-01T02:22:16;98801.25;;;20.07;100.00
21960;BME280;11144;43.030;25.108;2022-08-01T02:23:53;98797.44;;;20.10;100.00
21960;BME280;11144;43.030;25.108;2022-08-01T02:25:38;98801.63;;;20.14;100.00
21960;BME280;11144;43.030;25.108;2022-08-01T02:27:37;98790.09;;;20.23;100.00
21960;BME280;11144;43.030;25.108;2022-08-01T02:29:16;98785.34;;;20.26;100.00
21960;BME280;11144;43.030;25.108;2022-08-01T02:30:54;98781.28;;;20.32;100.00
21960;BME280;11144;43.030;25.108;2022-08-01T02:32:34;98779.50;;;20.42;100.00
21960;BME280;11144;43.030;25.108;2022-08-01T02:34:11;98788.06;;;20.47;100.00
21960;BME280;11144;43.030;25.108;2022-08-01T02:35:48;98779.88;;;20.48;100.00
21960;BME280;11144;43.030;25.108;2022-08-01T02:37:45;98782.13;;;20.53;100.00
21960;BME280;11144;43.030;25.108;2022-08-01T02:39:21;98772.25;;;20.53;100.00
21960;BME280;11144;43.030;25.108;2022-08-01T02:40:58;98773.13;;;20.54;100.00
21960;BME280;11144;43.030;25.108;2022-08-01T02:42:34;98768.00;;;20.51;100.00
21960;BME280;11144;43.030;25.108;2022-08-01T02:44:13;98767.13;;;20.50;100.00
21960;BME280;11144;43.030;25.108;2022-08-01T02:45:52;98761.19;;;20.47;100.00
21960;BME280;11144;43.030;25.108;2022-08-01T02:47:27;98771.00;;;20.37;100.00
21960;BME280;11144;43.030;25.108;2022-08-01T02:49:06;98767.84;;;20.32;100.00
21960;BME280;11144;43.030;25.108;2022-08-01T02:50:43;98766.13;;;20.31;100.00
21960;BME280;11144;43.030;25.108;2022-08-01T02:52:20;98769.81;;;20.30;100.00
21960;BME280;11144;43.030;25.108;2022-08-01T02:53:54;98773.47;;;20.29;100.00
21960;BME280;11144;43.030;25.108;2022-08-01T02:55:30;98763.00;;;20.26;100.00
21960;BME280;11144;43.030;25.108;2022-08-01T02:57:06;98771.03;;;20.26;100.00
21960;BME280;11144;43.030;25.108;2022-08-01T02:58:46;98765.81;;;20.24;100.00
21960;BME280;11144;43.030;25.108;2022-08-01T03:00:19;98764.72;;;20.16;100.00
21960;BME280;11144;43.030;25.108;2022-08-01T03:01:56;98769.88;;;20.08;100.00
21960;BME280;11144;43.030;25.108;2022-08-01T03:03:31;98762.88;;;19.84;100.00
21960;BME280;11144;43.030;25.108;2022-08-01T03:05:08;98762.91;;;19.73;100.00
21960;BME280;11144;43.030;25.108;2022-08-01T03:06:42;98768.41;;;19.61;100.00
21960;BME280;11144;43.030;25.108;2022-08-01T03:08:17;98773.91;;;19.48;100.00
21960;BME280;11144;43.030;25.108;2022-08-01T03:09:52;98783.44;;;19.30;100.00
21960;BME280;11144;43.030;25.108;2022-08-01T03:11:26;98776.34;;;19.18;100.00
21960;BME280;11144;43.030;25.108;2022-08-01T03:13:01;98777.66;;;19.02;100.00
21960;BME280;11144;43.030;25.108;2022-08-01T03:14:37;98781.44;;;18.88;100.00
21960;BME280;11144;43.030;25.108;2022-08-01T03:16:13;98777.63;;;18.80;100.00
21960;BME280;11144;43.030;25.108;2022-08-01T03:17:49;98779.72;;;18.76;100.00
21960;BME280;11144;43.030;25.108;2022-08-01T03:19:25;98776.28;;;18.63;100.00
21960;BME280;11144;43.030;25.108;2022-08-01T03:21:02;98775.75;;;18.47;100.00
21960;BME280;11144;43.030;25.108;2022-08-01T03:22:35;98782.53;;;18.40;100.00
21960;BME280;11144;43.030;25.108;2022-08-01T03:24:12;98786.63;;;18.33;100.00
21960;BME280;11144;43.030;25.108;2022-08-01T03:25:50;98778.59;;;18.33;100.00
21960;BME280;11144;43.030;25.108;2022-08-01T03:27:28;98779.09;;;18.38;100.00
21960;BME280;11144;43.030;25.108;2022-08-01T03:29:04;98776.22;;;18.41;100.00
21960;BME280;11144;43.030;25.108;2022-08-01T03:30:40;98783.03;;;18.45;100.00
21960;BME280;11144;43.030;25.108;2022-08-01T03:32:14;98785.00;;;18.43;100.00
21960;BME280;11144;43.030;25.108;2022-08-01T03:33:48;98785.09;;;18.42;100.00
21960;BME280;11144;43.030;25.108;2022-08-01T03:35:22;98778.16;;;18.39;100.00
21960;BME280;11144;43.030;25.108;2022-08-01T03:37:02;98785.44;;;18.37;100.00
21960;BME280;11144;43.030;25.108;2022-08-01T03:38:37;98788.31;;;18.34;100.00
21960;BME280;11144;43.030;25.108;2022-08-01T03:40:15;98786.72;;;18.32;100.00
21960;BME280;11144;43.030;25.108;2022-08-01T03:41:57;98786.13;;;18.28;100.00
21960;BME280;11144;43.030;25.108;2022-08-01T03:43:36;98787.59;;;18.32;100.00
21960;BME280;11144;43.030;25.108;2022-08-01T03:45:23;98783.94;;;18.33;100.00
21960;BME280;11144;43.030;25.108;2022-08-01T03:47:01;98783.53;;;18.39;100.00
21960;BME280;11144;43.030;25.108;2022-08-01T03:48:37;98783.03;;;18.45;100.00
21960;BME280;11144;43.030;25.108;2022-08-01T03:50:13;98783.56;;;18.50;100.00
21960;BME280;11144;43.030;25.108;2022-08-01T03:51:48;98785.03;;;18.54;100.00
21960;BME280;11144;43.030;25.108;2022-08-01T03:53:26;98797.94;;;18.60;100.00
21960;BME280;11144;43.030;25.108;2022-08-01T03:55:05;98788.94;;;18.61;100.00
21960;BME280;11144;43.030;25.108;2022-08-01T03:56:41;98791.25;;;18.66;100.00
21960;BME280;11144;43.030;25.108;2022-08-01T03:58:16;98783.97;;;18.68;100.00
21960;BME280;11144;43.030;25.108;2022-08-01T03:59:50;98782.63;;;18.73;100.00
21960;BME280;11144;43.030;25.108;2022-08-01T04:01:24;98782.75;;;18.83;100.00
21960;BME280;11144;43.030;25.108;2022-08-01T04:02:59;98784.84;;;18.90;100.00
21960;BME280;11144;43.030;25.108;2022-08-01T04:04:33;98779.22;;;18.93;100.00
21960;BME280;11144;43.030;25.108;2022-08-01T04:06:07;98778.53;;;19.02;100.00
21960;BME280;11144;43.030;25.108;2022-08-01T04:07:45;98777.31;;;19.17;100.00
21960;BME280;11144;43.030;25.108;2022-08-01T04:09:21;98772.94;;;19.27;100.00
21960;BME280;11144;43.030;25.108;2022-08-01T04:10:54;98773.22;;;19.35;100.00
21960;BME280;11144;43.030;25.108;2022-08-01T04:12:28;98769.78;;;19.44;100.00
21960;BME280;11144;43.030;25.108;2022-08-01T04:14:01;98763.69;;;19.53;100.00
21960;BME280;11144;43.030;25.108;2022-08-01T04:15:39;98783.78;;;19.59;100.00
21960;BME280;11144;43.030;25.108;2022-08-01T04:17:13;98786.31;;;19.60;100.00
21960;BME280;11144;43.030;25.108;2022-08-01T04:18:46;98786.31;;;19.60;100.00
21960;BME280;11144;43.030;25.108;2022-08-01T04:20:20;98782.44;;;19.64;100.00
21960;BME280;11144;43.030;25.108;2022-08-01T04:21:54;98784.47;;;19.72;100.00
21960;BME280;11144;43.030;25.108;2022-08-01T04:23:30;98782.16;;;19.67;100.00
21960;BME280;11144;43.030;25.108;2022-08-01T04:25:09;98785.25;;;19.63;100.00
21960;BME280;11144;43.030;25.108;2022-08-01T04:26:45;98792.41;;;19.73;100.00
21960;BME280;11144;43.030;25.108;2022-08-01T04:28:21;98779.00;;;19.73;100.00
21960;BME280;11144;43.030;25.108;2022-08-01T04:29:58;98786.03;;;19.85;100.00
21960;BME280;11144;43.030;25.108;2022-08-01T04:31:32;98773.78;;;20.03;100.00
21960;BME280;11144;43.030;25.108;2022-08-01T04:33:07;98793.44;;;20.15;100.00
21960;BME280;11144;43.030;25.108;2022-08-01T04:34:44;98777.28;;;20.26;100.00
21960;BME280;11144;43.030;25.108;2022-08-01T04:36:20;98774.34;;;20.29;100.00
21960;BME280;11144;43.030;25.108;2022-08-01T04:37:55;98780.75;;;20.38;100.00
21960;BME280;11144;43.030;25.108;2022-08-01T04:39:31;98778.75;;;20.51;100.00
21960;BME280;11144;43.030;25.108;2022-08-01T04:41:23;98772.31;;;20.63;100.00
21960;BME280;11144;43.030;25.108;2022-08-01T04:42:57;98782.94;;;20.85;100.00
21960;BME280;11144;43.030;25.108;2022-08-01T04:44:31;98771.44;;;21.24;100.00
21960;BME280;11144;43.030;25.108;2022-08-01T04:46:05;98775.28;;;21.70;100.00
21960;BME280;11144;43.030;25.108;2022-08-01T04:47:39;98772.97;;;22.15;100.00
21960;BME280;11144;43.030;25.108;2022-08-01T04:49:14;98770.72;;;22.39;100.00
21960;BME280;11144;43.030;25.108;2022-08-01T04:50:48;98783.50;;;22.75;100.00
21960;BME280;11144;43.030;25.108;2022-08-01T04:52:23;98776.31;;;23.22;100.00
21960;BME280;11144;43.030;25.108;2022-08-01T04:54:05;98778.94;;;23.68;100.00
21960;BME280;11144;43.030;25.108;2022-08-01T04:55:39;98783.53;;;24.12;100.00
21960;BME280;11144;43.030;25.108;2022-08-01T04:57:14;98787.97;;;24.30;100.00
21960;BME280;11144;43.030;25.108;2022-08-01T04:58:47;98773.22;;;24.42;100.00
21960;BME280;11144;43.030;25.108;2022-08-01T05:00:50;98768.06;;;24.66;100.00
21960;BME280;11144;43.030;25.108;2022-08-01T05:02:24;98765.63;;;24.81;100.00
21960;BME280;11144;43.030;25.108;2022-08-01T05:04:00;98755.31;;;25.02;100.00
21960;BME280;11144;43.030;25.108;2022-08-01T05:05:33;98741.19;;;25.41;100.00
21960;BME280;11144;43.030;25.108;2022-08-01T05:07:07;98744.34;;;25.70;100.00
21960;BME280;11144;43.030;25.108;2022-08-01T05:08:41;98731.97;;;25.68;100.00
21960;BME280;11144;43.030;25.108;2022-08-01T05:10:14;98731.41;;;25.56;100.00
21960;BME280;11144;43.030;25.108;2022-08-01T05:11:48;98739.56;;;25.64;100.00
21960;BME280;11144;43.030;25.108;2022-08-01T05:13:23;98735.84;;;25.65;100.00
21960;BME280;11144;43.030;25.108;2022-08-01T05:14:56;98731.78;;;25.61;100.00
21960;BME280;11144;43.030;25.108;2022-08-01T05:16:29;98726.41;;;25.77;100.00
21960;BME280;11144;43.030;25.108;2022-08-01T05:18:03;98730.47;;;25.73;100.00
21960;BME280;11144;43.030;25.108;2022-08-01T05:19:39;98723.94;;;26.00;100.00
21960;BME280;11144;43.030;25.108;2022-08-01T05:21:14;98723.47;;;26.05;100.00
21960;BME280;11144;43.030;25.108;2022-08-01T05:22:48;98729.28;;;26.42;100.00
21960;BME280;11144;43.030;25.108;2022-08-01T05:24:21;98716.56;;;26.66;100.00
21960;BME280;11144;43.030;25.108;2022-08-01T05:25:56;98723.16;;;26.80;100.00
21960;BME280;11144;43.030;25.108;2022-08-01T05:27:30;98723.53;;;26.85;100.00
21960;BME280;11144;43.030;25.108;2022-08-01T05:29:06;98718.69;;;27.19;100.00
21960;BME280;11144;43.030;25.108;2022-08-01T05:30:39;98718.31;;;27.38;100.00
21960;BME280;11144;43.030;25.108;2022-08-01T05:32:13;98723.06;;;27.44;100.00
21960;BME280;11144;43.030;25.108;2022-08-01T05:33:46;98726.81;;;27.35;100.00
21960;BME280;11144;43.030;25.108;2022-08-01T05:35:19;98730.16;;;27.53;100.00
21960;BME280;11144;43.030;25.108;2022-08-01T05:36:53;98719.84;;;27.79;100.00
21960;BME280;11144;43.030;25.108;2022-08-01T05:38:28;98735.78;;;27.90;100.00
21960;BME280;11144;43.030;25.108;2022-08-01T05:40:02;98730.84;;;28.16;100.00
21960;BME280;11144;43.030;25.108;2022-08-01T05:41:37;98730.75;;;28.09;100.00
21960;BME280;11144;43.030;25.108;2022-08-01T05:43:10;98732.38;;;28.18;100.00
21960;BME280;11144;43.030;25.108;2022-08-01T05:44:45;98734.09;;;28.19;100.00
21960;BME280;11144;43.030;25.108;2022-08-01T05:46:19;98724.59;;;27.85;100.00
21960;BME280;11144;43.030;25.108;2022-08-01T05:47:56;98740.63;;;28.02;100.00
21960;BME280;11144;43.030;25.108;2022-08-01T05:49:30;98724.34;;;28.25;100.00
21960;BME280;11144;43.030;25.108;2022-08-01T05:51:03;98736.47;;;28.45;100.00
21960;BME280;11144;43.030;25.108;2022-08-01T05:52:37;98729.31;;;28.66;100.00
21960;BME280;11144;43.030;25.108;2022-08-01T05:54:11;98725.66;;;28.97;100.00
21960;BME280;11144;43.030;25.108;2022-08-01T05:55:44;98727.50;;;29.33;100.00
21960;BME280;11144;43.030;25.108;2022-08-01T05:57:17;98724.84;;;29.25;100.00
21960;BME280;11144;43.030;25.108;2022-08-01T05:58:51;98725.97;;;29.16;100.00
21960;BME280;11144;43.030;25.108;2022-08-01T06:00:26;98724.00;;;28.87;100.00
21960;BME280;11144;43.030;25.108;2022-08-01T06:02:00;98723.75;;;28.97;100.00
21960;BME280;11144;43.030;25.108;2022-08-01T06:03:33;98715.38;;;28.84;100.00
21960;BME280;11144;43.030;25.108;2022-08-01T06:05:07;98720.84;;;28.84;100.00
21960;BME280;11144;43.030;25.108;2022-08-01T06:06:44;98712.78;;;28.68;100.00
21960;BME280;11144;43.030;25.108;2022-08-01T06:08:17;98720.59;;;28.71;100.00
21960;BME280;11144;43.030;25.108;2022-08-01T06:09:51;98724.72;;;28.67;100.00
21960;BME280;11144;43.030;25.108;2022-08-01T06:11:24;98718.22;;;28.68;100.00
21960;BME280;11144;43.030;25.108;2022-08-01T06:12:57;98728.41;;;28.29;100.00
21960;BME280;11144;43.030;25.108;2022-08-01T06:14:34;98720.47;;;28.42;100.00
21960;BME280;11144;43.030;25.108;2022-08-01T06:16:09;98721.38;;;28.12;100.00
21960;BME280;11144;43.030;25.108;2022-08-01T06:17:42;98729.06;;;28.31;100.00
21960;BME280;11144;43.030;25.108;2022-08-01T06:19:16;98729.78;;;28.55;100.00
21960;BME280;11144;43.030;25.108;2022-08-01T06:20:49;98727.50;;;28.81;100.00
21960;BME280;11144;43.030;25.108;2022-08-01T06:22:23;98734.03;;;29.10;100.00
21960;BME280;11144;43.030;25.108;2022-08-01T06:23:56;98725.78;;;29.03;100.00
21960;BME280;11144;43.030;25.108;2022-08-01T06:25:30;98730.22;;;28.96;100.00
21960;BME280;11144;43.030;25.108;2022-08-01T06:27:03;98732.81;;;28.75;100.00
21960;BME280;11144;43.030;25.108;2022-08-01T06:28:53;98735.84;;;28.80;100.00
21960;BME280;11144;43.030;25.108;2022-08-01T06:30:27;98731.41;;;29.02;100.00
21960;BME280;11144;43.030;25.108;2022-08-01T06:32:01;98731.56;;;29.00;100.00
21960;BME280;11144;43.030;25.108;2022-08-01T06:33:35;98731.13;;;28.74;100.00
21960;BME280;11144;43.030;25.108;2022-08-01T06:35:09;98729.28;;;28.52;100.00
21960;BME280;11144;43.030;25.108;2022-08-01T06:36:42;98731.53;;;28.48;100.00
21960;BME280;11144;43.030;25.108;2022-08-01T06:38:15;98719.94;;;28.69;100.00
21960;BME280;11144;43.030;25.108;2022-08-01T06:39:49;98734.34;;;29.29;100.00
21960;BME280;11144;43.030;25.108;2022-08-01T06:41:23;98736.03;;;29.30;100.00
21960;BME280;11144;43.030;25.108;2022-08-01T06:42:56;98729.28;;;29.12;100.00
21960;BME280;11144;43.030;25.108;2022-08-01T06:44:29;98729.88;;;28.99;100.00
21960;BME280;11144;43.030;25.108;2022-08-01T06:46:04;98733.31;;;29.30;100.00
21960;BME280;11144;43.030;25.108;2022-08-01T06:47:40;98737.34;;;29.20;100.00
21960;BME280;11144;43.030;25.108;2022-08-01T06:49:13;98729.00;;;29.50;100.00
21960;BME280;11144;43.030;25.108;2022-08-01T06:50:46;98742.97;;;29.91;100.00
21960;BME280;11144;43.030;25.108;2022-08-01T06:52:20;98709.19;;;30.06;100.00
21960;BME280;11144;43.030;25.108;2022-08-01T06:53:54;98727.84;;;29.88;100.00
21960;BME280;11144;43.030;25.108;2022-08-01T06:55:27;98731.44;;;29.74;100.00
21960;BME280;11144;43.030;25.108;2022-08-01T06:57:00;98736.59;;;29.84;100.00
21960;BME280;11144;43.030;25.108;2022-08-01T06:58:37;98724.19;;;29.81;100.00
21960;BME280;11144;43.030;25.108;2022-08-01T07:00:12;98730.78;;;30.22;100.00
21960;BME280;11144;43.030;25.108;2022-08-01T07:01:45;98728.84;;;30.02;100.00
21960;BME280;11144;43.030;25.108;2022-08-01T07:03:20;98731.81;;;30.07;100.00
21960;BME280;11144;43.030;25.108;2022-08-01T07:04:53;98735.09;;;29.96;100.00
21960;BME280;11144;43.030;25.108;2022-08-01T07:06:27;98745.44;;;29.86;100.00
21960;BME280;11144;43.030;25.108;2022-08-01T07:08:00;98726.09;;;29.52;100.00
21960;BME280;11144;43.030;25.108;2022-08-01T07:09:34;98740.19;;;29.41;100.00
21960;BME280;11144;43.030;25.108;2022-08-01T07:11:07;98730.50;;;29.67;100.00
21960;BME280;11144;43.030;25.108;2022-08-01T07:12:41;98731.25;;;29.90;100.00
21960;BME280;11144;43.030;25.108;2022-08-01T07:14:14;98733.25;;;30.17;100.00
21960;BME280;11144;43.030;25.108;2022-08-01T07:15:47;98734.44;;;30.29;100.00
21960;BME280;11144;43.030;25.108;2022-08-01T07:17:21;98737.41;;;30.34;100.00
21960;BME280;11144;43.030;25.108;2022-08-01T07:18:55;98740.09;;;30.49;100.00
21960;BME280;11144;43.030;25.108;2022-08-01T07:20:29;98727.53;;;30.33;100.00
21960;BME280;11144;43.030;25.108;2022-08-01T07:22:08;98740.94;;;30.28;100.00
21960;BME280;11144;43.030;25.108;2022-08-01T07:23:42;98719.25;;;30.20;100.00
21960;BME280;11144;43.030;25.108;2022-08-01T07:25:17;98728.72;;;30.24;100.00
21960;BME280;11144;43.030;25.108;2022-08-01T07:26:50;98734.56;;;30.21;100.00
21960;BME280;11144;43.030;25.108;2022-08-01T07:28:26;98736.28;;;29.93;100.00
21960;BME280;11144;43.030;25.108;2022-08-01T07:29:59;98739.44;;;30.11;100.00
21960;BME280;11144;43.030;25.108;2022-08-01T07:31:33;98741.25;;;30.04;100.00
21960;BME280;11144;43.030;25.108;2022-08-01T07:33:07;98730.75;;;29.87;100.00
21960;BME280;11144;43.030;25.108;2022-08-01T07:34:41;98724.56;;;29.93;100.00
21960;BME280;11144;43.030;25.108;2022-08-01T07:36:15;98724.13;;;29.60;100.00
21960;BME280;11144;43.030;25.108;2022-08-01T07:37:48;98715.25;;;29.58;100.00
21960;BME280;11144;43.030;25.108;2022-08-01T07:39:22;98716.59;;;29.62;100.00
21960;BME280;11144;43.030;25.108;2022-08-01T07:40:55;98723.75;;;29.63;100.00
21960;BME280;11144;43.030;25.108;2022-08-01T07:42:28;98710.66;;;29.59;100.00
21960;BME280;11144;43.030;25.108;2022-08-01T07:44:02;98730.31;;;29.83;100.00
21960;BME280;11144;43.030;25.108;2022-08-01T07:45:36;98713.25;;;29.96;100.00
21960;BME280;11144;43.030;25.108;2022-08-01T07:47:23;98719.72;;;30.09;100.00
21960;BME280;11144;43.030;25.108;2022-08-01T07:48:57;98720.78;;;30.29;100.00
21960;BME280;11144;43.030;25.108;2022-08-01T07:50:32;98721.28;;;30.18;100.00
21960;BME280;11144;43.030;25.108;2022-08-01T07:52:05;98718.00;;;30.23;100.00
21960;BME280;11144;43.030;25.108;2022-08-01T07:53:39;98721.03;;;30.55;100.00
21960;BME280;11144;43.030;25.108;2022-08-01T07:55:12;98728.72;;;30.45;100.00
21960;BME280;11144;43.030;25.108;2022-08-01T07:56:47;98724.56;;;30.70;100.00
21960;BME280;11144;43.030;25.108;2022-08-01T07:58:21;98724.34;;;30.51;100.00
21960;BME280;11144;43.030;25.108;2022-08-01T07:59:54;98727.97;;;30.72;100.00
21960;BME280;11144;43.030;25.108;2022-08-01T08:01:28;98733.88;;;30.76;100.00
21960;BME280;11144;43.030;25.108;2022-08-01T08:03:02;98736.94;;;30.87;100.00
21960;BME280;11144;43.030;25.108;2022-08-01T08:04:35;98736.59;;;30.76;100.00
21960;BME280;11144;43.030;25.108;2022-08-01T08:06:09;98737.97;;;30.65;100.00
21960;BME280;11144;43.030;25.108;2022-08-01T08:07:42;98739.41;;;30.61;100.00
21960;BME280;11144;43.030;25.108;2022-08-01T08:09:16;98734.34;;;30.79;100.00
21960;BME280;11144;43.030;25.108;2022-08-01T08:10:50;98735.03;;;31.15;100.00
21960;BME280;11144;43.030;25.108;2022-08-01T08:12:23;98737.69;;;31.30;100.00
21960;BME280;11144;43.030;25.108;2022-08-01T08:14:00;98728.69;;;31.08;100.00
21960;BME280;11144;43.030;25.108;2022-08-01T08:15:34;98706.47;;;30.90;100.00